Time;durP1;ratioP1;P1;durP2;ratioP2;P2;SDS_P1;SDS_P2;PMS_P1;PMS_P2;Temp;Humidity;BMP_temperature;BMP_pressure;BME280_temperature;BME280_humidity;BME280_pressure;Samples;Min_cycle;Max_cycle;Signal;HPM_P1;HPM_P2
2024/01/04 00:00:33;;;;;;;0.20;0.10;;;;;;;;;;5008983;28;20037;-83
2024/01/04 00:02:59;;;;;;;0.20;0.10;;;;;;;;;;5031581;28;20107;-83
2024/01/04 00:05:25;;;;;;;0.20;0.00;;;;;;;;;;5014332;28;20045;-88
2024/01/04 00:07:51;;;;;;;0.20;0.00;;;;;;;;;;5011981;28;20138;-85
2024/01/04 00:10:17;;;;;;;0.20;0.10;;;;;;;;;;5011102;28;20036;-82
2024/01/04 00:12:51;;;;;;;0.20;0.08;;;;;;;;;;5017286;28;20501;-85
2024/01/04 00:15:18;;;;;;;0.20;0.00;;;;;;;;;;5011983;28;20064;-84
2024/01/04 00:17:44;;;;;;;0.20;0.00;;;;;;;;;;5012278;28;20052;-85
2024/01/04 00:20:10;;;;;;;0.20;0.10;;;;;;;;;;5007283;28;20033;-87
2024/01/04 00:22:36;;;;;;;0.20;0.00;;;;;;;;;;5010794;28;20090;-85
2024/01/04 00:25:09;;;;;;;0.20;0.00;;;;;;;;;;5010024;28;20044;-88
2024/01/04 00:27:35;;;;;;;0.20;0.00;;;;;;;;;;5011907;28;20512;-84
2024/01/04 00:30:01;;;;;;;0.20;0.10;;;;;;;;;;5021092;28;20136;-86
2024/01/04 00:32:27;;;;;;;0.20;0.00;;;;;;;;;;5006865;28;20179;-86
2024/01/04 00:34:53;;;;;;;0.20;0.10;;;;;;;;;;5026373;28;20042;-84
2024/01/04 00:37:19;;;;;;;0.20;0.00;;;;;;;;;;5009847;28;20047;-85
2024/01/04 00:39:49;;;;;;;0.20;0.10;;;;;;;;;;5024431;28;20475;-85
2024/01/04 00:42:15;;;;;;;0.20;0.10;;;;;;;;;;5029647;28;20045;-84
2024/01/04 00:44:41;;;;;;;0.20;0.10;;;;;;;;;;5031047;28;20041;-84
2024/01/04 00:47:06;;;;;;;0.20;0.10;;;;;;;;;;5001694;28;20044;-84
2024/01/04 00:49:33;;;;;;;0.20;0.10;;;;;;;;;;5014182;28;20056;-84
2024/01/04 00:51:59;;;;;;;0.20;0.00;;;;;;;;;;5012468;28;20061;-85
2024/01/04 00:54:25;;;;;;;0.20;0.00;;;;;;;;;;5010635;28;20141;-84
2024/01/04 00:56:51;;;;;;;0.20;0.00;;;;;;;;;;5015354;28;20132;-87
2024/01/04 00:59:19;;;;;;;0.20;0.00;;;;;;;;;;5009963;28;20039;-87
2024/01/04 01:01:45;;;;;;;0.20;0.03;;;;;;;;;;5006995;28;20540;-85
2024/01/04 01:04:11;;;;;;;0.20;0.00;;;;;;;;;;5025373;28;20040;-87
2024/01/04 01:06:37;;;;;;;0.20;0.00;;;;;;;;;;5014579;28;20045;-85
2024/01/04 01:09:03;;;;;;;0.20;0.08;;;;;;;;;;5009833;28;20037;-81
2024/01/04 01:11:29;;;;;;;0.20;0.00;;;;;;;;;;5012574;28;20041;-87
2024/01/04 01:13:55;;;;;;;0.20;0.10;;;;;;;;;;5010705;28;20056;-86
2024/01/04 01:16:21;;;;;;;0.20;0.00;;;;;;;;;;5010766;28;20163;-85
2024/01/04 01:18:47;;;;;;;0.20;0.00;;;;;;;;;;5026695;28;20082;-85
2024/01/04 01:21:13;;;;;;;0.20;0.00;;;;;;;;;;5013657;28;20511;-83
2024/01/04 01:23:39;;;;;;;0.20;0.00;;;;;;;;;;5011577;28;20045;-86
2024/01/04 01:26:05;;;;;;;0.20;0.10;;;;;;;;;;5012116;28;20037;-85
2024/01/04 01:28:31;;;;;;;0.20;0.00;;;;;;;;;;5013195;28;20036;-83
2024/01/04 01:31:00;;;;;;;0.20;0.00;;;;;;;;;;5027584;28;20033;-84
2024/01/04 01:33:26;;;;;;;0.20;0.00;;;;;;;;;;5034879;28;20068;-83
2024/01/04 01:35:52;;;;;;;0.20;0.05;;;;;;;;;;5015122;28;20040;-86
2024/01/04 01:38:18;;;;;;;0.20;0.10;;;;;;;;;;5032595;28;20037;-85
2024/01/04 01:40:44;;;;;;;0.20;0.00;;;;;;;;;;5016007;28;20037;-84
2024/01/04 01:43:12;;;;;;;0.20;0.00;;;;;;;;;;5012750;28;20076;-87
2024/01/04 01:45:38;;;;;;;0.20;0.10;;;;;;;;;;5020930;28;20179;-84
2024/01/04 01:48:05;;;;;;;0.20;0.00;;;;;;;;;;5041444;28;20042;-84
2024/01/04 01:50:31;;;;;;;0.20;0.00;;;;;;;;;;5017880;28;20473;-85
2024/01/04 01:52:58;;;;;;;0.20;0.10;;;;;;;;;;5015812;28;20041;-89
2024/01/04 01:55:25;;;;;;;0.20;0.00;;;;;;;;;;5028698;28;20048;-87
2024/01/04 01:57:51;;;;;;;0.20;0.00;;;;;;;;;;5015421;28;20029;-85
2024/01/04 02:00:18;;;;;;;0.20;0.08;;;;;;;;;;5029985;28;20028;-87
2024/01/04 02:02:45;;;;;;;0.20;0.10;;;;;;;;;;5012736;28;20033;-83
2024/01/04 02:05:11;;;;;;;0.20;0.00;;;;;;;;;;5017671;28;20434;-85
2024/01/04 02:07:37;;;;;;;0.20;0.03;;;;;;;;;;5022999;28;20567;-87
2024/01/04 02:10:04;;;;;;;0.20;0.00;;;;;;;;;;5025536;28;20395;-84
2024/01/04 02:12:31;;;;;;;0.20;0.00;;;;;;;;;;5019217;28;20037;-83
2024/01/04 02:14:57;;;;;;;0.20;0.00;;;;;;;;;;5033777;28;20048;-82
2024/01/04 02:17:25;;;;;;;0.20;0.00;;;;;;;;;;5022444;28;20037;-84
2024/01/04 02:19:52;;;;;;;0.20;0.10;;;;;;;;;;5049198;28;20137;-84
2024/01/04 02:22:18;;;;;;;0.20;0.10;;;;;;;;;;5012748;28;20033;-86
2024/01/04 02:24:45;;;;;;;0.20;0.00;;;;;;;;;;5012456;28;20051;-84
2024/01/04 02:27:11;;;;;;;0.20;0.00;;;;;;;;;;5017901;28;20042;-83
2024/01/04 02:29:37;;;;;;;0.20;0.10;;;;;;;;;;5012829;28;20068;-85
2024/01/04 02:32:04;;;;;;;0.20;0.00;;;;;;;;;;5033400;28;20079;-84
2024/01/04 02:34:30;;;;;;;0.20;0.10;;;;;;;;;;5053373;28;20515;-84
2024/01/04 02:36:56;;;;;;;0.20;0.00;;;;;;;;;;5031106;28;20037;-84
2024/01/04 02:39:22;;;;;;;0.20;0.00;;;;;;;;;;5029204;28;20049;-83
2024/01/04 02:41:48;;;;;;;0.20;0.00;;;;;;;;;;5015283;28;20468;-86
2024/01/04 02:44:14;;;;;;;0.20;0.00;;;;;;;;;;5027038;28;20443;-84
2024/01/04 02:46:40;;;;;;;0.20;0.03;;;;;;;;;;5047771;28;20072;-84
2024/01/04 02:49:06;;;;;;;0.20;0.00;;;;;;;;;;5016073;28;20040;-87
2024/01/04 02:51:32;;;;;;;0.20;0.08;;;;;;;;;;5014148;28;20033;-85
2024/01/04 02:53:58;;;;;;;0.20;0.10;;;;;;;;;;5021570;28;20048;-85
2024/01/04 02:56:24;;;;;;;0.20;0.00;;;;;;;;;;5041141;28;20042;-86
2024/01/04 02:58:50;;;;;;;0.20;0.10;;;;;;;;;;5036743;28;20064;-86
2024/01/04 03:01:23;;;;;;;0.20;0.00;;;;;;;;;;5030116;28;20056;-85
2024/01/04 03:03:53;;;;;;;0.20;0.05;;;;;;;;;;5018498;28;20040;-84
2024/01/04 03:06:22;;;;;;;0.20;0.10;;;;;;;;;;5033471;28;20077;-86
2024/01/04 03:08:48;;;;;;;0.20;0.10;;;;;;;;;;5015492;28;20122;-85
2024/01/04 03:11:14;;;;;;;0.20;0.10;;;;;;;;;;5012114;28;20045;-84
2024/01/04 03:13:41;;;;;;;0.20;0.03;;;;;;;;;;5004887;28;20048;-87
2024/01/04 03:16:07;;;;;;;0.20;0.00;;;;;;;;;;5025627;28;20033;-83
2024/01/04 03:18:34;;;;;;;0.20;0.00;;;;;;;;;;5036472;28;20092;-84
2024/01/04 03:21:00;;;;;;;0.20;0.08;;;;;;;;;;5032718;28;20087;-85
2024/01/04 03:23:26;;;;;;;0.20;0.00;;;;;;;;;;5013379;28;20096;-83
2024/01/04 03:25:52;;;;;;;0.20;0.00;;;;;;;;;;5026356;28;20685;-86
2024/01/04 03:28:18;;;;;;;0.20;0.10;;;;;;;;;;5011380;28;20036;-82
2024/01/04 03:30:44;;;;;;;0.20;0.00;;;;;;;;;;5008667;28;20412;-85
2024/01/04 03:33:10;;;;;;;0.20;0.10;;;;;;;;;;5029473;28;20029;-84
2024/01/04 03:35:36;;;;;;;0.20;0.10;;;;;;;;;;5015840;28;20080;-83
2024/01/04 03:38:02;;;;;;;0.20;0.10;;;;;;;;;;5034033;28;20040;-85
2024/01/04 03:40:28;;;;;;;0.20;0.00;;;;;;;;;;5016439;28;20213;-85
2024/01/04 03:42:56;;;;;;;0.20;0.00;;;;;;;;;;5025555;28;20045;-84
2024/01/04 03:45:22;;;;;;;0.20;0.20;;;;;;;;;;5021425;28;20055;-84
2024/01/04 03:47:48;;;;;;;0.20;0.00;;;;;;;;;;5016892;28;20052;-85
2024/01/04 03:50:14;;;;;;;0.20;0.00;;;;;;;;;;5027238;28;20501;-85
2024/01/04 03:52:40;;;;;;;0.20;0.10;;;;;;;;;;5025697;28;20039;-86
2024/01/04 03:55:07;;;;;;;0.20;0.10;;;;;;;;;;5014432;28;20053;-84
2024/01/04 03:57:33;;;;;;;0.20;0.00;;;;;;;;;;5053477;28;20039;-85
2024/01/04 04:00:01;;;;;;;0.20;0.00;;;;;;;;;;5027069;28;20097;-86
2024/01/04 04:02:27;;;;;;;0.20;0.00;;;;;;;;;;5042350;28;20104;-87
2024/01/04 04:04:56;;;;;;;0.20;0.10;;;;;;;;;;5030238;28;20094;-85
2024/01/04 04:07:22;;;;;;;0.20;0.10;;;;;;;;;;5020393;28;20098;-84
2024/01/04 04:09:51;;;;;;;0.20;0.10;;;;;;;;;;5062322;28;20134;-87
2024/01/04 04:12:17;;;;;;;0.20;0.10;;;;;;;;;;5030263;28;20037;-86
2024/01/04 04:14:45;;;;;;;0.20;0.00;;;;;;;;;;5049395;28;20075;-85
2024/01/04 04:17:14;;;;;;;0.20;0.10;;;;;;;;;;5045623;28;20044;-85
2024/01/04 04:19:40;;;;;;;0.20;0.10;;;;;;;;;;5036089;28;20049;-86
2024/01/04 04:22:06;;;;;;;0.20;0.00;;;;;;;;;;5056832;28;20094;-84
2024/01/04 04:24:32;;;;;;;0.20;0.00;;;;;;;;;;5034036;28;20045;-86
2024/01/04 04:26:58;;;;;;;0.20;0.10;;;;;;;;;;5030765;28;20060;-86
2024/01/04 04:29:24;;;;;;;0.20;0.10;;;;;;;;;;5039723;28;20102;-86
2024/01/04 04:31:50;;;;;;;0.20;0.10;;;;;;;;;;5027622;28;20066;-82
2024/01/04 04:34:16;;;;;;;0.20;0.10;;;;;;;;;;5042334;28;20037;-83
2024/01/04 04:36:42;;;;;;;0.20;0.00;;;;;;;;;;5014803;28;20101;-82
2024/01/04 04:39:09;;;;;;;0.20;0.00;;;;;;;;;;5043234;28;20045;-88
2024/01/04 04:41:42;;;;;;;0.20;0.10;;;;;;;;;;5040221;28;20112;-86
2024/01/04 04:44:11;;;;;;;0.20;0.10;;;;;;;;;;5041805;28;20048;-85
2024/01/04 04:46:37;;;;;;;0.20;0.10;;;;;;;;;;5038809;28;20045;-85
2024/01/04 04:49:03;;;;;;;0.20;0.10;;;;;;;;;;5026951;28;20045;-84
2024/01/04 04:51:29;;;;;;;0.20;0.00;;;;;;;;;;5031898;28;20105;-85
2024/01/04 04:53:58;;;;;;;0.20;0.00;;;;;;;;;;5026774;28;20036;-86
2024/01/04 04:56:24;;;;;;;0.20;0.00;;;;;;;;;;5048270;28;20083;-85
2024/01/04 04:58:50;;;;;;;0.20;0.00;;;;;;;;;;5036962;28;20041;-84
2024/01/04 05:01:16;;;;;;;0.20;0.10;;;;;;;;;;5054647;28;20087;-83
2024/01/04 05:03:42;;;;;;;0.20;0.10;;;;;;;;;;5042966;28;20628;-84
2024/01/04 05:06:12;;;;;;;0.20;0.00;;;;;;;;;;5059848;28;20048;-84
2024/01/04 05:08:38;;;;;;;0.20;0.10;;;;;;;;;;5040410;28;20088;-84
2024/01/04 05:11:13;;;;;;;0.20;0.10;;;;;;;;;;5027662;28;20025;-86
2024/01/04 05:13:39;;;;;;;0.20;0.10;;;;;;;;;;5028324;28;20044;-86
2024/01/04 05:16:06;;;;;;;0.20;0.00;;;;;;;;;;5047930;28;20041;-84
2024/01/04 05:18:32;;;;;;;0.20;0.10;;;;;;;;;;5023046;28;20041;-84
2024/01/04 05:20:58;;;;;;;0.20;0.10;;;;;;;;;;5052563;28;20123;-83
2024/01/04 05:23:24;;;;;;;0.20;0.10;;;;;;;;;;5046313;28;20033;-86
2024/01/04 05:25:50;;;;;;;0.20;0.10;;;;;;;;;;5029565;28;20025;-86
2024/01/04 05:28:16;;;;;;;0.20;0.10;;;;;;;;;;5052062;28;20041;-86
2024/01/04 05:30:42;;;;;;;0.20;0.00;;;;;;;;;;5030616;28;20040;-86
2024/01/04 05:33:08;;;;;;;0.20;0.00;;;;;;;;;;5047578;28;20038;-83
2024/01/04 05:35:34;;;;;;;0.20;0.00;;;;;;;;;;5032461;28;20093;-85
2024/01/04 05:38:00;;;;;;;0.20;0.10;;;;;;;;;;5040709;28;20038;-86
2024/01/04 05:40:27;;;;;;;0.20;0.10;;;;;;;;;;5033647;28;20095;-86
2024/01/04 05:42:55;;;;;;;0.20;0.10;;;;;;;;;;5032192;28;20083;-85
2024/01/04 05:45:39;;;;;;;0.20;0.08;;;;;;;;;;5030021;28;20061;-87
2024/01/04 05:48:06;;;;;;;0.20;0.10;;;;;;;;;;5042882;28;20041;-85
2024/01/04 05:50:38;;;;;;;0.20;0.00;;;;;;;;;;5037829;28;20021;-87
2024/01/04 05:53:05;;;;;;;0.20;0.10;;;;;;;;;;5043081;28;20039;-86
2024/01/04 05:55:34;;;;;;;0.20;0.00;;;;;;;;;;5030220;28;20049;-83
2024/01/04 05:58:01;;;;;;;0.20;0.10;;;;;;;;;;5029937;28;20098;-85
2024/01/04 06:00:27;;;;;;;0.20;0.00;;;;;;;;;;5030830;28;20068;-86
2024/01/04 06:02:53;;;;;;;0.20;0.00;;;;;;;;;;5029553;28;20068;-87
2024/01/04 06:05:19;;;;;;;0.20;0.00;;;;;;;;;;5034722;28;20025;-86
2024/01/04 06:07:45;;;;;;;0.20;0.00;;;;;;;;;;5028960;28;20043;-85
2024/01/04 06:10:13;;;;;;;0.20;0.10;;;;;;;;;;5047361;28;20072;-85
2024/01/04 06:12:39;;;;;;;0.20;0.00;;;;;;;;;;5030618;28;20056;-84
2024/01/04 06:15:09;;;;;;;0.20;0.00;;;;;;;;;;5039282;28;20041;-86
2024/01/04 06:17:35;;;;;;;0.20;0.05;;;;;;;;;;5040785;28;20037;-86
2024/01/04 06:20:01;;;;;;;0.20;0.10;;;;;;;;;;5049949;28;20071;-86
2024/01/04 06:22:27;;;;;;;0.20;0.10;;;;;;;;;;5047850;28;20108;-86
2024/01/04 06:24:53;;;;;;;0.20;0.10;;;;;;;;;;5035165;28;20076;-87
2024/01/04 06:27:22;;;;;;;0.20;0.10;;;;;;;;;;5038896;28;20025;-86
2024/01/04 06:29:48;;;;;;;0.20;0.10;;;;;;;;;;5030953;28;20129;-86
2024/01/04 06:32:14;;;;;;;0.20;0.00;;;;;;;;;;5028095;28;20056;-86
2024/01/04 06:34:41;;;;;;;0.20;0.00;;;;;;;;;;5032450;28;20045;-86
2024/01/04 06:37:07;;;;;;;0.20;0.00;;;;;;;;;;5034548;28;20040;-87
2024/01/04 06:39:33;;;;;;;0.20;0.10;;;;;;;;;;5025521;28;20084;-85
2024/01/04 06:42:04;;;;;;;0.20;0.10;;;;;;;;;;5030610;28;20064;-85
2024/01/04 06:44:30;;;;;;;0.20;0.10;;;;;;;;;;5034027;28;20905;-86
2024/01/04 06:46:56;;;;;;;0.20;0.00;;;;;;;;;;5049926;28;20040;-85
2024/01/04 06:49:25;;;;;;;0.20;0.10;;;;;;;;;;5034424;28;20038;-88
2024/01/04 06:51:51;;;;;;;0.20;0.10;;;;;;;;;;5032458;28;20144;-86
2024/01/04 06:54:19;;;;;;;0.20;0.10;;;;;;;;;;5035868;28;20033;-86
2024/01/04 06:56:46;;;;;;;0.20;0.00;;;;;;;;;;5036834;28;20044;-86
2024/01/04 06:59:12;;;;;;;0.20;0.10;;;;;;;;;;5036325;28;20032;-86
2024/01/04 07:01:38;;;;;;;0.20;0.10;;;;;;;;;;5065743;28;20048;-87
2024/01/04 07:04:05;;;;;;;0.20;0.10;;;;;;;;;;5030575;28;20079;-85
2024/01/04 07:06:37;;;;;;;0.20;0.10;;;;;;;;;;5029538;28;20033;-85
2024/01/04 07:09:05;;;;;;;0.20;0.10;;;;;;;;;;5057540;28;20029;-86
2024/01/04 07:11:31;;;;;;;0.20;0.10;;;;;;;;;;5043776;28;20045;-86
2024/01/04 07:13:57;;;;;;;0.20;0.10;;;;;;;;;;5031869;28;20033;-86
2024/01/04 07:16:23;;;;;;;0.20;0.10;;;;;;;;;;5030077;28;20095;-87
2024/01/04 07:18:49;;;;;;;0.20;0.10;;;;;;;;;;5033922;28;20060;-84
2024/01/04 07:21:15;;;;;;;0.20;0.00;;;;;;;;;;5028974;28;20034;-85
2024/01/04 07:23:41;;;;;;;0.20;0.00;;;;;;;;;;5047253;28;20088;-86
2024/01/04 07:26:10;;;;;;;0.20;0.10;;;;;;;;;;5035764;28;20041;-87
2024/01/04 07:28:36;;;;;;;0.20;0.10;;;;;;;;;;5030909;28;20064;-88
2024/01/04 07:31:02;;;;;;;0.20;0.07;;;;;;;;;;5035869;28;20036;-87
2024/01/04 07:33:28;;;;;;;0.20;0.10;;;;;;;;;;5059005;28;20582;-86
2024/01/04 07:36:00;;;;;;;0.20;0.10;;;;;;;;;;5046931;28;20017;-87
2024/01/04 07:38:29;;;;;;;0.20;0.10;;;;;;;;;;5065591;28;20041;-87
2024/01/04 07:40:55;;;;;;;0.20;0.00;;;;;;;;;;5033901;28;20334;-87
2024/01/04 07:43:21;;;;;;;0.20;0.10;;;;;;;;;;5049906;28;20037;-87
2024/01/04 07:45:55;;;;;;;0.20;0.10;;;;;;;;;;5035289;28;20031;-86
2024/01/04 07:48:25;;;;;;;0.20;0.10;;;;;;;;;;5031611;28;20088;-87
2024/01/04 07:50:52;;;;;;;0.20;0.03;;;;;;;;;;5026684;28;20027;-85
2024/01/04 07:53:20;;;;;;;0.20;0.10;;;;;;;;;;5032566;28;20052;-87
2024/01/04 07:55:46;;;;;;;0.20;0.00;;;;;;;;;;5048013;28;20048;-86
2024/01/04 07:58:12;;;;;;;0.20;0.00;;;;;;;;;;5034119;28;20163;-86
2024/01/04 08:00:38;;;;;;;0.20;0.10;;;;;;;;;;5043644;28;20060;-86
2024/01/04 08:03:04;;;;;;;0.20;0.10;;;;;;;;;;5022427;28;20071;-87
2024/01/04 08:05:34;;;;;;;0.20;0.00;;;;;;;;;;5022856;28;20090;-86
2024/01/04 08:08:00;;;;;;;0.20;0.00;;;;;;;;;;5033135;28;20025;-86
2024/01/04 08:10:28;;;;;;;0.20;0.00;;;;;;;;;;5038320;28;20044;-85
2024/01/04 08:12:57;;;;;;;0.20;0.00;;;;;;;;;;5036664;28;20052;-87
2024/01/04 08:15:28;;;;;;;0.20;0.10;;;;;;;;;;5023426;28;20048;-86
2024/01/04 08:17:54;;;;;;;0.20;0.10;;;;;;;;;;5016516;28;20412;-86
2024/01/04 08:20:20;;;;;;;0.20;0.10;;;;;;;;;;5016671;28;20097;-87
2024/01/04 08:22:46;;;;;;;0.20;0.00;;;;;;;;;;5019718;28;20621;-86
2024/01/04 08:25:13;;;;;;;0.20;0.00;;;;;;;;;;5016812;28;20038;-88
2024/01/04 08:27:39;;;;;;;0.20;0.10;;;;;;;;;;5016383;28;20505;-87
2024/01/04 08:30:10;;;;;;;0.20;0.10;;;;;;;;;;5019468;28;20501;-86
2024/01/04 08:32:40;;;;;;;0.20;0.10;;;;;;;;;;5020946;28;20041;-86
2024/01/04 08:35:07;;;;;;;0.20;0.03;;;;;;;;;;5037795;28;20303;-86
2024/01/04 08:37:40;;;;;;;0.20;0.10;;;;;;;;;;5022415;28;20029;-86
2024/01/04 08:40:07;;;;;;;0.20;0.10;;;;;;;;;;5035616;28;20057;-86
2024/01/04 08:42:35;;;;;;;0.20;0.00;;;;;;;;;;5019784;28;20409;-87
2024/01/04 08:45:04;;;;;;;0.20;0.08;;;;;;;;;;5016632;28;20470;-87
2024/01/04 08:47:40;;;;;;;0.20;0.10;;;;;;;;;;5020373;28;20060;-87
2024/01/04 08:50:06;;;;;;;0.20;0.00;;;;;;;;;;5013887;28;20041;-87
2024/01/04 08:52:36;;;;;;;0.20;0.10;;;;;;;;;;5013228;28;20079;-85
2024/01/04 08:55:02;;;;;;;0.20;0.10;;;;;;;;;;5034936;28;20108;-85
2024/01/04 08:57:36;;;;;;;0.20;0.10;;;;;;;;;;5014685;28;20047;-86
2024/01/04 09:00:04;;;;;;;0.20;0.10;;;;;;;;;;5037604;28;20132;-86
2024/01/04 09:02:36;;;;;;;0.20;0.10;;;;;;;;;;5030809;28;20703;-87
2024/01/04 09:05:02;;;;;;;0.20;0.10;;;;;;;;;;5016864;28;20505;-86
2024/01/04 09:07:28;;;;;;;0.20;0.00;;;;;;;;;;5037827;28;20063;-87
2024/01/04 09:09:54;;;;;;;0.20;0.00;;;;;;;;;;5026465;28;20529;-87
2024/01/04 09:12:21;;;;;;;0.20;0.10;;;;;;;;;;5031691;28;20038;-87
2024/01/04 09:14:47;;;;;;;0.20;0.00;;;;;;;;;;5019827;28;20069;-86
2024/01/04 09:17:21;;;;;;;0.20;0.00;;;;;;;;;;5018110;28;20606;-87
2024/01/04 09:19:50;;;;;;;0.20;0.00;;;;;;;;;;5019426;28;20037;-86
2024/01/04 09:22:16;;;;;;;0.20;0.20;;;;;;;;;;5021544;28;20052;-86
2024/01/04 09:24:43;;;;;;;0.20;0.03;;;;;;;;;;5016379;28;20041;-85
2024/01/04 09:27:12;;;;;;;0.20;0.00;;;;;;;;;;5047998;28;20044;-86
2024/01/04 09:29:38;;;;;;;0.20;0.10;;;;;;;;;;5032137;28;20064;-86
2024/01/04 09:32:05;;;;;;;0.20;0.10;;;;;;;;;;5024442;28;20045;-86
2024/01/04 09:34:31;;;;;;;0.20;0.00;;;;;;;;;;5034493;28;20086;-86
2024/01/04 09:36:57;;;;;;;0.20;0.10;;;;;;;;;;5020186;28;20048;-86
2024/01/04 09:39:24;;;;;;;0.20;0.00;;;;;;;;;;5043587;23;20032;-84
2024/01/04 09:41:51;;;;;;;0.20;0.10;;;;;;;;;;5036029;28;20055;-85
2024/01/04 09:44:17;;;;;;;0.20;0.10;;;;;;;;;;5021444;28;20049;-85
2024/01/04 09:46:48;;;;;;;0.20;0.10;;;;;;;;;;5023184;28;20136;-84
2024/01/04 09:49:14;;;;;;;0.20;0.00;;;;;;;;;;5018739;28;20132;-85
2024/01/04 09:51:41;;;;;;;0.20;0.08;;;;;;;;;;5020113;28;20042;-86
2024/01/04 09:54:08;;;;;;;0.20;0.10;;;;;;;;;;5020574;28;20049;-86
2024/01/04 09:56:38;;;;;;;0.20;0.10;;;;;;;;;;5003464;28;20057;-86
2024/01/04 09:59:04;;;;;;;0.20;0.00;;;;;;;;;;5000898;28;20037;-85
2024/01/04 10:01:35;;;;;;;0.20;0.00;;;;;;;;;;5015302;28;20080;-86
2024/01/04 10:04:06;;;;;;;0.20;0.00;;;;;;;;;;5007718;28;20285;-86
2024/01/04 10:06:33;;;;;;;0.20;0.00;;;;;;;;;;5011259;28;20060;-83
2024/01/04 10:09:14;;;;;;;0.20;0.00;;;;;;;;;;5018841;28;20045;-84
2024/01/04 10:11:44;;;;;;;0.20;0.10;;;;;;;;;;5008626;28;20069;-83
2024/01/04 10:14:10;;;;;;;0.20;0.00;;;;;;;;;;5003401;28;20044;-83
2024/01/04 10:16:37;;;;;;;0.20;0.10;;;;;;;;;;5003833;28;20037;-83
2024/01/04 10:19:03;;;;;;;0.20;0.00;;;;;;;;;;5001955;28;20253;-83
2024/01/04 10:21:36;;;;;;;0.20;0.00;;;;;;;;;;5023443;28;20238;-84
2024/01/04 10:24:02;;;;;;;0.20;0.10;;;;;;;;;;5023927;28;20061;-83
2024/01/04 10:26:28;;;;;;;0.20;0.10;;;;;;;;;;5009414;28;20412;-84
2024/01/04 10:29:00;;;;;;;0.20;0.03;;;;;;;;;;5017646;28;20101;-83
2024/01/04 10:31:27;;;;;;;0.20;0.10;;;;;;;;;;5017897;28;20184;-83
2024/01/04 10:33:57;;;;;;;0.20;0.08;;;;;;;;;;5006018;28;20325;-84
2024/01/04 10:36:23;;;;;;;0.20;0.00;;;;;;;;;;5012664;28;20112;-83
2024/01/04 10:38:50;;;;;;;0.20;0.10;;;;;;;;;;5002922;28;20037;-83
2024/01/04 10:41:19;;;;;;;0.20;0.10;;;;;;;;;;4998950;28;20033;-83
2024/01/04 10:43:45;;;;;;;0.20;0.10;;;;;;;;;;5022015;28;20030;-83
2024/01/04 10:46:12;;;;;;;0.20;0.10;;;;;;;;;;5003059;28;20555;-84
2024/01/04 10:48:39;;;;;;;0.20;0.00;;;;;;;;;;4994518;28;20049;-83
2024/01/04 10:51:06;;;;;;;0.20;0.00;;;;;;;;;;5014920;28;20064;-84
2024/01/04 10:53:38;;;;;;;0.20;0.00;;;;;;;;;;5004356;28;20136;-84
2024/01/04 10:56:05;;;;;;;0.20;0.00;;;;;;;;;;4998051;28;21246;-83
2024/01/04 10:58:37;;;;;;;0.20;0.10;;;;;;;;;;5001032;28;20049;-83
2024/01/04 11:01:03;;;;;;;;;;;;;;;;;;4994797;28;20042;-84
2024/01/04 11:03:30;;;;;;;0.20;0.10;;;;;;;;;;4991509;28;19939;-84
2024/01/04 11:06:00;;;;;;;0.20;0.10;;;;;;;;;;5009463;28;20041;-83
2024/01/04 11:08:27;;;;;;;0.20;0.10;;;;;;;;;;4997582;28;20038;-83
2024/01/04 11:10:56;;;;;;;0.20;0.08;;;;;;;;;;4997103;28;20037;-83
2024/01/04 11:13:22;;;;;;;0.20;0.00;;;;;;;;;;4995906;28;20480;-84
2024/01/04 11:15:53;;;;;;;0.20;0.10;;;;;;;;;;4994562;28;20041;-83
2024/01/04 11:18:37;;;;;;;0.20;0.10;;;;;;;;;;5000262;28;20045;-83
2024/01/04 11:21:11;;;;;;;0.20;0.10;;;;;;;;;;5000970;28;20038;-84
2024/01/04 11:23:56;;;;;;;0.20;0.10;;;;;;;;;;4999799;28;20046;-84
2024/01/04 11:26:26;;;;;;;0.20;0.10;;;;;;;;;;4996781;28;20084;-84
2024/01/04 11:28:53;;;;;;;0.20;0.10;;;;;;;;;;5008058;28;20513;-84
2024/01/04 11:31:23;;;;;;;0.20;0.10;;;;;;;;;;5013038;28;23051;-84
2024/01/04 11:33:50;;;;;;;0.20;0.10;;;;;;;;;;5001295;28;20052;-84
2024/01/04 11:36:18;;;;;;;0.20;0.10;;;;;;;;;;5000295;28;20049;-84
2024/01/04 11:38:46;;;;;;;0.20;0.00;;;;;;;;;;5012251;28;20041;-83
2024/01/04 11:41:12;;;;;;;0.20;0.00;;;;;;;;;;5009073;28;20128;-84
2024/01/04 11:43:38;;;;;;;0.20;0.10;;;;;;;;;;5000208;28;20397;-84
2024/01/04 11:46:21;;;;;;;0.20;0.10;;;;;;;;;;5011630;28;21486;-84
2024/01/04 11:48:52;;;;;;;0.20;0.10;;;;;;;;;;5009968;28;20041;-84
2024/01/04 11:51:18;;;;;;;0.20;0.10;;;;;;;;;;4997055;28;20064;-84
2024/01/04 11:53:47;;;;;;;0.20;0.10;;;;;;;;;;5015767;28;20038;-83
2024/01/04 11:56:13;;;;;;;0.20;0.00;;;;;;;;;;5017526;28;20042;-83
2024/01/04 11:58:40;;;;;;;0.20;0.00;;;;;;;;;;4999033;28;20042;-83
2024/01/04 12:01:06;;;;;;;0.20;0.00;;;;;;;;;;4997586;28;20375;-84
2024/01/04 12:03:32;;;;;;;0.20;0.08;;;;;;;;;;5027016;28;20453;-83
2024/01/04 12:06:00;;;;;;;0.20;0.10;;;;;;;;;;4992729;28;20067;-84
2024/01/04 12:08:30;;;;;;;0.20;0.00;;;;;;;;;;4995975;28;20026;-83
2024/01/04 12:10:57;;;;;;;0.20;0.10;;;;;;;;;;5000263;28;20041;-84
2024/01/04 12:13:24;;;;;;;0.20;0.10;;;;;;;;;;5011071;28;20080;-83
2024/01/04 12:15:51;;;;;;;0.20;0.00;;;;;;;;;;5029059;28;20053;-84
2024/01/04 12:18:17;;;;;;;0.20;0.10;;;;;;;;;;5000265;28;20037;-84
2024/01/04 12:20:46;;;;;;;0.20;0.00;;;;;;;;;;5014016;28;20041;-84
2024/01/04 12:23:12;;;;;;;0.20;0.00;;;;;;;;;;4999079;28;20049;-84
2024/01/04 12:25:39;;;;;;;0.20;0.00;;;;;;;;;;5013621;28;21126;-84
2024/01/04 12:28:06;;;;;;;0.20;0.10;;;;;;;;;;5005530;28;20754;-84
2024/01/04 12:30:36;;;;;;;0.20;0.00;;;;;;;;;;4995372;28;20052;-84
2024/01/04 12:33:03;;;;;;;0.20;0.10;;;;;;;;;;4995042;28;20045;-84
2024/01/04 12:35:30;;;;;;;0.20;0.10;;;;;;;;;;4996139;28;20033;-84
2024/01/04 12:37:59;;;;;;;0.20;0.00;;;;;;;;;;5006213;28;20618;-84
2024/01/04 12:40:26;;;;;;;0.20;0.10;;;;;;;;;;4995857;28;20409;-84
2024/01/04 12:42:52;;;;;;;0.20;0.05;;;;;;;;;;4995118;28;20154;-84
2024/01/04 12:45:18;;;;;;;0.20;0.00;;;;;;;;;;4995914;28;20041;-84
2024/01/04 12:47:46;;;;;;;0.20;0.00;;;;;;;;;;4988898;28;20045;-85
2024/01/04 12:50:19;;;;;;;0.20;0.10;;;;;;;;;;5008023;28;20038;-85
2024/01/04 12:52:45;;;;;;;0.20;0.10;;;;;;;;;;4996017;28;20054;-85
2024/01/04 12:55:11;;;;;;;0.20;0.10;;;;;;;;;;4991103;28;20045;-85
2024/01/04 12:57:37;;;;;;;0.20;0.10;;;;;;;;;;4997147;28;20124;-85
2024/01/04 13:00:04;;;;;;;0.20;0.05;;;;;;;;;;4991028;28;20037;-85
2024/01/04 13:02:30;;;;;;;0.20;0.00;;;;;;;;;;4996725;28;20084;-85
2024/01/04 13:04:56;;;;;;;0.20;0.10;;;;;;;;;;4995462;28;20535;-85
2024/01/04 13:07:22;;;;;;;0.20;0.10;;;;;;;;;;4998711;28;20037;-85
2024/01/04 13:09:48;;;;;;;0.20;0.10;;;;;;;;;;4993077;28;20365;-85
2024/01/04 13:12:14;;;;;;;0.20;0.08;;;;;;;;;;4994484;28;20049;-85
2024/01/04 13:14:40;;;;;;;0.20;0.00;;;;;;;;;;4996539;28;20046;-85
2024/01/04 13:17:06;;;;;;;0.20;0.03;;;;;;;;;;4995783;28;20044;-85
2024/01/04 13:19:32;;;;;;;0.20;0.10;;;;;;;;;;4990211;28;20033;-85
2024/01/04 13:21:58;;;;;;;0.20;0.10;;;;;;;;;;4995619;28;20255;-85
2024/01/04 13:24:24;;;;;;;0.20;0.00;;;;;;;;;;4996718;28;20044;-85
2024/01/04 13:26:51;;;;;;;0.20;0.00;;;;;;;;;;4996247;28;20092;-85
2024/01/04 13:29:17;;;;;;;0.20;0.00;;;;;;;;;;4995352;28;20045;-85
2024/01/04 13:31:43;;;;;;;0.20;0.10;;;;;;;;;;5003158;28;20107;-85
2024/01/04 13:34:09;;;;;;;0.20;0.08;;;;;;;;;;4999745;28;20121;-85
2024/01/04 13:36:35;;;;;;;0.20;0.00;;;;;;;;;;5000436;28;20041;-85
2024/01/04 13:39:01;;;;;;;0.20;0.00;;;;;;;;;;4995012;28;20049;-85
2024/01/04 13:41:27;;;;;;;0.20;0.10;;;;;;;;;;5012033;28;20038;-86
2024/01/04 13:43:54;;;;;;;0.20;0.10;;;;;;;;;;5008723;28;20129;-85
2024/01/04 13:46:20;;;;;;;0.20;0.00;;;;;;;;;;4992277;28;20033;-85
2024/01/04 13:48:46;;;;;;;0.20;0.00;;;;;;;;;;5009113;28;20033;-84
2024/01/04 13:51:12;;;;;;;0.20;0.00;;;;;;;;;;5012731;28;20045;-84
2024/01/04 13:53:38;;;;;;;0.20;0.10;;;;;;;;;;5001546;28;20053;-85
2024/01/04 13:56:04;;;;;;;0.30;0.22;;;;;;;;;;4996940;28;20034;-83
2024/01/04 13:58:31;;;;;;;0.20;0.00;;;;;;;;;;4997325;28;20034;-84
2024/01/04 14:00:57;;;;;;;0.20;0.05;;;;;;;;;;4996060;28;20479;-84
2024/01/04 14:03:23;;;;;;;0.20;0.10;;;;;;;;;;4994959;28;20139;-84
2024/01/04 14:05:51;;;;;;;0.20;0.10;;;;;;;;;;5001991;28;20094;-84
2024/01/04 14:08:17;;;;;;;0.20;0.10;;;;;;;;;;5002565;28;20052;-85
2024/01/04 14:10:43;;;;;;;0.20;0.10;;;;;;;;;;4997864;28;20037;-85
2024/01/04 14:13:11;;;;;;;0.20;0.10;;;;;;;;;;5010876;28;20085;-84
2024/01/04 14:15:38;;;;;;;0.20;0.10;;;;;;;;;;4995290;28;20425;-84
2024/01/04 14:18:07;;;;;;;0.20;0.10;;;;;;;;;;4995303;28;20179;-85
2024/01/04 14:20:33;;;;;;;0.20;0.05;;;;;;;;;;4998072;28;20498;-85
2024/01/04 14:22:59;;;;;;;0.20;0.00;;;;;;;;;;4995360;28;20044;-84
2024/01/04 14:25:26;;;;;;;0.20;0.00;;;;;;;;;;5005788;28;20038;-84
2024/01/04 14:27:52;;;;;;;0.20;0.00;;;;;;;;;;4995228;28;20048;-85
2024/01/04 14:30:21;;;;;;;0.20;0.10;;;;;;;;;;4993199;28;20054;-85
2024/01/04 14:32:48;;;;;;;0.20;0.10;;;;;;;;;;5009278;28;20117;-85
2024/01/04 14:35:14;;;;;;;0.20;0.10;;;;;;;;;;5008378;28;20072;-85
2024/01/04 14:37:40;;;;;;;0.20;0.05;;;;;;;;;;4993971;28;20045;-85
2024/01/04 14:40:07;;;;;;;0.20;0.10;;;;;;;;;;5002236;28;20587;-85
2024/01/04 14:42:33;;;;;;;0.20;0.00;;;;;;;;;;5025190;28;20045;-85